Flight Track Log - Related Links

Times and Time Zones

All times are in EDT time to prevent confusion due to time zone crossing. See the JZA575 flight status page for this flight to view local times or setup timezone preferences in your user account.


Time Position Orientation Groundspeed Altitude Reporting Facility
EDT Latitude Longitude Course Direction KTS MPH feet Rate Location/Type
Sat 08:25:10 AM 52.1500 -106.6667 270° West 10 12 1,700  Level Edmonton Center
Sat 08:26:10 AM 52.1500 -106.7500 288° West 170 196 2,700 1,600 Climbing Edmonton Center
Sat 08:27:10 AM 52.1667 -106.8333 280° West 220 253 4,900 2,000 Climbing Edmonton Center
Sat 08:28:10 AM 52.1833 -106.9833 255° West 270 311 6,700 2,200 Climbing Edmonton Center
Sat 08:29:10 AM 52.1667 -107.0833 259° West 290 334 9,300 2,650 Climbing Edmonton Center
Sat 08:30:10 AM 52.1500 -107.2167 248° West 290 334 12,000 2,300 Climbing Edmonton Center
Sat 08:31:10 AM 52.1167 -107.3500 270° West 310 357 13,900 1,850 Climbing Edmonton Center
Sat 08:32:10 AM 52.1167 -107.5167 260° West 320 368 15,700 1,800 Climbing Edmonton Center
Sat 08:33:10 AM 52.1000 -107.6667 260° West 330 380 17,500 1,587 Climbing Edmonton Center
Sat 08:34:11 AM 52.0833 -107.8167 252° West 340 391 18,900 1,438 Climbing Edmonton Center
Sat 08:35:11 AM 52.0500 -107.9833 270° West 340 391 20,400 1,350 Climbing Edmonton Center
Sat 08:36:11 AM 52.0500 -108.1167 262° West 350 403 21,600 1,200 Climbing Edmonton Center
Sat 08:37:11 AM 52.0333 -108.3167 259° West 360 414 22,800 1,100 Climbing Edmonton Center
Sat 08:38:11 AM 52.0167 -108.4500 252° West 360 414 23,800 1,000 Climbing Edmonton Center
Sat 08:39:11 AM 51.9833 -108.6167 262° West 370 426 24,800 950 Climbing Edmonton Center
Sat 08:40:11 AM 51.9667 -108.8000 270° West 370 426 25,700 900 Climbing Edmonton Center
Sat 08:41:11 AM 51.9667 -108.9667 252° West 380 437 26,600 950 Climbing Edmonton Center
Sat 08:42:11 AM 51.9333 -109.1333 262° West 380 437 27,600 800 Climbing Edmonton Center
Sat 08:43:11 AM 51.9167 -109.3167 252° West 380 437 28,200 700 Climbing Edmonton Center
Sat 08:44:11 AM 51.8833 -109.4833 262° West 390 449 29,000 700 Climbing Edmonton Center
Sat 08:45:11 AM 51.8667 -109.6667 252° West 390 449 29,600 650 Climbing Edmonton Center
Sat 08:46:11 AM 51.8333 -109.8333 261° West 390 449 30,300 650 Climbing Edmonton Center
Sat 08:47:11 AM 51.8167 -110.0000 254° West 390 449 30,900 600 Climbing Edmonton Center
Sat 08:48:11 AM 51.7833 -110.1833 270° West 400 460 31,500 450 Climbing Edmonton Center
Sat 08:49:11 AM 51.7833 -110.3667 255° West 400 460 31,800 400 Climbing Edmonton Center
Sat 08:50:11 AM 51.7500 -110.5667 260° West 400 460 32,300 450 Climbing Edmonton Center
Sat 08:51:11 AM 51.7333 -110.7167 255° West 410 472 32,700 450 Climbing Edmonton Center
Sat 08:52:11 AM 51.7000 -110.9167 262° West 410 472 33,200 350 Climbing Edmonton Center
Sat 08:53:11 AM 51.6833 -111.1000 254° West 410 472 33,400 350 Climbing Edmonton Center
Sat 08:54:11 AM 51.6500 -111.2833 252° West 410 472 33,900 300 Climbing Edmonton Center
Sat 08:55:11 AM 51.6167 -111.4500 262° West 410 472 34,000 50 Climbing Edmonton Center
Sat 08:56:11 AM 51.6000 -111.6333 254° West 420 483 34,000  Level Edmonton Center
Sat 08:57:11 AM 51.5667 -111.8167 256° West 420 483 34,000  Level Edmonton Center
Sat 08:58:11 AM 51.5333 -112.0333 262° West 430 495 34,000  Level Edmonton Center
Sat 08:59:11 AM 51.5167 -112.2167 254° West 430 495 34,000  Level Edmonton Center
Sat 09:00:11 AM 51.4833 -112.4000 262° West 440 506 34,000  Level Edmonton Center
Sat 09:01:11 AM 51.4667 -112.5833 254° West 430 495 34,000  Level Edmonton Center
Sat 09:02:11 AM 51.4333 -112.7667 255° West 440 506 34,000  Level Edmonton Center
Sat 09:03:11 AM 51.4000 -112.9667 262° West 440 506 34,000  Level Edmonton Center
Sat 09:04:11 AM 51.3833 -113.1500 255° West 440 506 34,000  Level Edmonton Center
Sat 09:05:11 AM 51.3500 -113.3500 254° West 440 506 34,000  Level Edmonton Center
Sat 09:06:11 AM 51.3167 -113.5333 254° West 440 506 34,000  Level Edmonton Center
Sat 09:07:11 AM 51.2833 -113.7167 254° West 430 495 34,000  Level Edmonton Center
Sat 09:08:11 AM 51.2500 -113.9000 256° West 440 506 34,000  Level Edmonton Center
Sat 09:09:11 AM 51.2167 -114.1167 254° West 430 495 34,000  Level Edmonton Center
Sat 09:10:10 AM 51.1833 -114.3000 254° West 430 495 34,000  Level Edmonton Center
Sat 09:11:11 AM 51.1500 -114.4833 254° West 430 495 34,000  Level Edmonton Center
Sat 09:12:11 AM 51.1167 -114.6667 254° West 430 495 34,000  Level Edmonton Center
Sat 09:13:11 AM 51.0833 -114.8500 254° West 430 495 34,000  Level Edmonton Center
Sat 09:14:11 AM 51.0500 -115.0333 255° West 430 495 34,000  Level Edmonton Center
Sat 09:15:11 AM 51.0167 -115.2333 254° West 430 495 34,000  Level Edmonton Center
Sat 09:16:11 AM 50.9833 -115.4167 255° West 430 495 34,000  Level Edmonton Center
Sat 09:17:08 AM 50.9667 -115.5167 262° West 430 495 34,000  Level Vancouver Center
Sat 09:18:08 AM 50.9500 -115.7000 245° Southwest 430 495 34,000  Level Vancouver Center
Sat 09:19:08 AM 50.9000 -115.8667 255° West 430 495 34,000  Level Vancouver Center
Sat 09:20:08 AM 50.8667 -116.0667 254° West 430 495 34,000  Level Vancouver Center
Sat 09:21:08 AM 50.8333 -116.2500 245° Southwest 430 495 34,000  Level Vancouver Center
Sat 09:22:08 AM 50.7833 -116.4167 255° West 430 495 34,000  Level Vancouver Center
Sat 09:23:08 AM 50.7500 -116.6167 254° West 430 495 34,000  Level Vancouver Center
Sat 09:24:08 AM 50.7167 -116.8000 253° West 440 506 34,000  Level Vancouver Center
Sat 09:25:08 AM 50.6833 -116.9667 254° West 440 506 34,000  Level Vancouver Center
Sat 09:26:08 AM 50.6500 -117.1500 255° West 440 506 34,000  Level Vancouver Center
Sat 09:27:08 AM 50.6167 -117.3500 245° Southwest 440 506 34,000  Level Vancouver Center
Sat 09:28:08 AM 50.5667 -117.5167 254° West 440 506 34,000  Level Vancouver Center
Sat 09:29:08 AM 50.5333 -117.7000 247° West 440 506 34,000  Level Vancouver Center
Sat 09:30:08 AM 50.4833 -117.8833 252° West 440 506 34,000  Level Vancouver Center
Sat 09:35:09 AM 50.3000 -118.7500 247° West 430 495 34,000  Level Vancouver Center
Sat 09:36:08 AM 50.2500 -118.9333 261° West 420 483 34,000  Level Vancouver Center
Sat 09:37:08 AM 50.2333 -119.1000 247° West 420 483 34,000  Level Vancouver Center
Sat 09:38:09 AM 50.1833 -119.2833 247° West 420 483 34,000  Level Vancouver Center
Sat 09:39:08 AM 50.1333 -119.4667 253° West 430 495 34,000  Level Vancouver Center
Sat 09:40:09 AM 50.1000 -119.6333 247° West 430 495 34,000  Level Vancouver Center
Sat 09:41:08 AM 50.0500 -119.8167 253° West 430 495 34,000  Level Vancouver Center
Sat 09:42:09 AM 50.0167 -119.9833 247° West 430 495 34,000  Level Vancouver Center
Sat 09:43:08 AM 49.9667 -120.1667 254° West 440 506 34,000  Level Vancouver Center
Sat 09:44:08 AM 49.9333 -120.3500 251° West 440 506 34,000  Level Vancouver Center
Sat 09:45:09 AM 49.9000 -120.5000 247° West 440 506 34,000  Level Vancouver Center
Sat 09:46:09 AM 49.8500 -120.6833 249° West 440 506 34,000  Level Vancouver Center
Sat 09:47:08 AM 49.8000 -120.8833 243° Southwest 430 495 34,000  Level Vancouver Center
Sat 09:48:08 AM 49.7500 -121.0333 254° West 440 506 34,000  Level Vancouver Center
Sat 09:49:08 AM 49.7167 -121.2167 254° West 430 495 34,000 -298 Level Vancouver Center
Sat 09:50:09 AM 49.6833 -121.4000 243° Southwest 430 495 33,400 -1,750 Descending Vancouver Center
Sat 09:51:08 AM 49.6333 -121.5500 247° West 440 506 30,500 -3,025 Descending Vancouver Center
Sat 09:52:08 AM 49.5833 -121.7333 245° Southwest 440 506 27,400 -3,000 Descending Vancouver Center
Sat 09:53:08 AM 49.5333 -121.9000 254° West 420 483 24,500 -3,000 Descending Vancouver Center
Sat 09:54:08 AM 49.5000 -122.0833 237° Southwest 410 472 21,400 -2,550 Descending Vancouver Center
Sat 09:55:08 AM 49.4500 -122.2000 233° Southwest 380 437 19,400 -1,850 Descending Vancouver Center
Sat 09:56:08 AM 49.3833 -122.3333 243° Southwest 350 403 17,700 -1,600 Descending Vancouver Center
Sat 09:57:08 AM 49.3500 -122.4333 237° Southwest 330 380 16,200 -1,750 Descending Vancouver Center
Sat 09:58:08 AM 49.3000 -122.5500 246° West 310 357 14,200 -2,050 Descending Vancouver Center
Sat 09:59:08 AM 49.2667 -122.6667 258° West 300 345 12,100 -1,736 Descending Vancouver Center
Sat 10:00:09 AM 49.2500 -122.7833 246° West 280 322 10,700 -1,050 Descending Vancouver Center
Sat 10:01:08 AM 49.2167 -122.9000 284° West 270 311 10,000 -353 Descending Vancouver Center
Sat 10:02:08 AM 49.2333 -123.0000 282° West 270 311 10,000 -450 Level Vancouver Center
Sat 10:03:08 AM 49.2500 -123.1167 284° West 260 299 9,100 -1,800 Descending Vancouver Center
Sat 10:04:08 AM 49.2667 -123.2167 270° West 260 299 6,400 -1,950 Descending Vancouver Center
Sat 10:05:08 AM 49.2667 -123.3333 284° West 260 299 5,200 -1,100 Descending Vancouver Center
Sat 10:06:08 AM 49.2833 -123.4333 213° Southwest 240 276 4,200 -800 Descending Vancouver Center
Sat 10:07:08 AM 49.2500 -123.4667 147° Southeast 200 230 3,600 -650 Descending Vancouver Center
Sat 10:08:08 AM 49.2167 -123.4333 111° Southeast 190 219 2,900 -650 Descending Vancouver Center
Sat 10:09:08 AM 49.2000 -123.3667 90° East 160 184 2,300 -750 Descending Vancouver Center
Sat 10:10:08 AM 49.2000 -123.2833 117° Southeast 160 184 1,400 -800 Descending Vancouver Center
Sat 10:11:08 AM 49.1833 -123.2333 117° Southeast 140 161 700 -700 Descending Vancouver Center

Login

Don't have an account? Register now (free) for customized features, flight alerts, and more!